Time;durP1;ratioP1;P1;durP2;ratioP2;P2;SDS_P1;SDS_P2;PMS_P1;PMS_P2;Temp;Humidity;BMP_temperature;BMP_pressure;BME280_temperature;BME280_humidity;BME280_pressure;Samples;Min_cycle;Max_cycle;Signal;HPM_P1;HPM_P2
2023/03/08 00:01:17;;;;;;;24.77;13.38;;;;;;;-0.91;100.00;99993.75;4950617;28;20614;-71
2023/03/08 00:03:42;;;;;;;28.30;13.18;;;;;;;-0.84;100.00;99994.38;4948489;28;20058;-71
2023/03/08 00:06:12;;;;;;;27.35;13.63;;;;;;;-0.81;100.00;99983.59;4947417;29;20035;-71
2023/03/08 00:08:38;;;;;;;27.00;14.20;;;;;;;-0.80;100.00;99983.50;4949041;28;20534;-71
2023/03/08 00:11:05;;;;;;;28.80;13.70;;;;;;;-0.81;100.00;99980.91;4949395;28;20031;-71
2023/03/08 00:13:30;;;;;;;27.30;14.00;;;;;;;-0.79;100.00;99979.06;4954620;28;20093;-72
2023/03/08 00:16:05;;;;;;;26.05;14.07;;;;;;;-0.78;100.00;99988.81;4951248;28;20043;-72
2023/03/08 00:18:31;;;;;;;27.05;13.25;;;;;;;-0.80;100.00;99988.84;4949699;29;20375;-72
2023/03/08 00:21:04;;;;;;;27.63;14.80;;;;;;;-0.79;100.00;99990.63;4935751;29;20439;-72
2023/03/08 00:23:29;;;;;;;;;;;;;;;-0.74;100.00;99981.56;4949761;29;20047;-72
2023/03/08 00:25:55;;;;;;;27.08;13.90;;;;;;;-0.77;100.00;99986.06;4950409;28;19916;-72
2023/03/08 00:28:20;;;;;;;26.85;13.77;;;;;;;-0.78;100.00;99983.47;4969549;28;20266;-72
2023/03/08 00:30:58;;;;;;;27.50;13.48;;;;;;;-0.79;100.00;99990.63;4950655;28;20122;-72
2023/03/08 00:33:23;;;;;;;25.73;13.82;;;;;;;-0.79;100.00;99987.94;4969259;28;20046;-72
2023/03/08 00:36:00;;;;;;;30.30;14.70;;;;;;;-0.79;100.00;99973.72;4959108;28;20463;-72
2023/03/08 00:38:29;;;;;;;24.80;15.43;;;;;;;-0.76;100.00;99981.59;4932952;29;20466;-72
2023/03/08 00:40:54;;;;;;;29.70;14.85;;;;;;;-0.74;100.00;99986.91;4932927;29;20039;-72
2023/03/08 00:43:20;;;;;;;28.13;14.05;;;;;;;-0.73;100.00;99984.16;4948814;28;20042;-72
2023/03/08 00:45:46;;;;;;;25.60;15.30;;;;;;;-0.74;100.00;99985.09;4948712;28;20376;-72
2023/03/08 00:48:11;;;;;;;28.45;14.80;;;;;;;-0.72;100.00;99977.00;4948678;28;20031;-72
2023/03/08 00:50:37;;;;;;;26.40;14.10;;;;;;;-0.70;100.00;99983.16;4948722;28;20039;-72
2023/03/08 00:53:02;;;;;;;27.50;14.25;;;;;;;-0.70;100.00;99977.81;4950323;28;20062;-71
2023/03/08 00:55:28;;;;;;;28.75;15.38;;;;;;;-0.70;100.00;99975.13;4960994;28;20035;-72
2023/03/08 00:57:53;;;;;;;32.75;14.95;;;;;;;-0.68;100.00;99983.97;4948662;28;20074;-73
2023/03/08 01:00:19;;;;;;;30.10;14.73;;;;;;;-0.71;100.00;99970.72;4948440;28;20061;-72
2023/03/08 01:02:44;;;;;;;28.05;14.02;;;;;;;-0.69;100.00;99969.75;4948561;28;20352;-72
2023/03/08 01:05:09;;;;;;;31.15;14.57;;;;;;;-0.69;100.00;99972.41;4950416;28;20047;-72
2023/03/08 01:07:35;;;;;;;32.97;15.30;;;;;;;-0.68;100.00;99966.16;4948648;29;20038;-73
2023/03/08 01:10:02;;;;;;;29.65;15.68;;;;;;;-0.66;100.00;99968.75;4948647;28;20380;-73
2023/03/08 01:12:28;;;;;;;26.95;14.05;;;;;;;-0.68;100.00;99962.59;4949169;29;20135;-72
2023/03/08 01:14:53;;;;;;;27.83;15.52;;;;;;;-0.66;100.00;99955.38;4947872;28;20059;-73
2023/03/08 01:17:19;;;;;;;27.25;15.60;;;;;;;-0.63;100.00;99952.59;4948238;28;20407;-73
2023/03/08 01:19:44;;;;;;;30.85;15.20;;;;;;;-0.66;100.00;99944.72;4948601;28;20039;-72
2023/03/08 01:22:10;;;;;;;28.52;15.90;;;;;;;-0.64;100.00;99948.19;4949920;29;20051;-73
2023/03/08 01:24:35;;;;;;;31.73;16.17;;;;;;;-0.61;100.00;99940.91;4948286;29;20061;-72
2023/03/08 01:27:01;;;;;;;31.58;16.25;;;;;;;-0.60;100.00;99934.66;4949201;29;20125;-73
2023/03/08 01:29:27;;;;;;;30.92;17.00;;;;;;;-0.58;100.00;99931.91;4947695;28;20035;-72
2023/03/08 01:31:52;;;;;;;30.88;16.70;;;;;;;-0.55;100.00;99926.47;4949767;28;20027;-72
2023/03/08 01:34:18;;;;;;;34.92;16.23;;;;;;;-0.54;100.00;99921.03;4949463;28;20039;-73
2023/03/08 01:36:44;;;;;;;36.15;16.88;;;;;;;-0.51;100.00;99914.72;4932868;29;20375;-72
2023/03/08 01:39:10;;;;;;;39.28;17.52;;;;;;;-0.50;100.00;99904.88;4949669;29;20043;-72
2023/03/08 01:41:35;;;;;;;33.08;16.20;;;;;;;-0.48;100.00;99909.22;4948382;28;20105;-72
2023/03/08 01:44:01;;;;;;;34.45;17.15;;;;;;;-0.47;100.00;99907.41;4921099;28;20039;-72
2023/03/08 01:46:35;;;;;;;37.60;16.08;;;;;;;-0.44;100.00;99905.50;4932705;29;20070;-72
2023/03/08 01:49:14;;;;;;;32.83;15.95;;;;;;;-0.42;100.00;99900.06;4951483;29;20043;-72
2023/03/08 01:51:49;;;;;;;35.08;17.48;;;;;;;-0.41;100.00;99896.50;4951870;28;20039;-73
2023/03/08 01:54:35;;;;;;;35.97;16.83;;;;;;;-0.38;100.00;99889.19;4951521;29;20114;-73
2023/03/08 01:57:05;;;;;;;38.70;17.50;;;;;;;-0.38;100.00;99897.19;4953159;28;20079;-72
2023/03/08 01:59:33;;;;;;;37.33;17.20;;;;;;;-0.42;100.00;99887.59;4951117;28;20051;-73
2023/03/08 02:01:59;;;;;;;38.92;17.45;;;;;;;-0.33;100.00;99897.00;4951364;28;20035;-73
2023/03/08 02:04:26;;;;;;;36.80;17.70;;;;;;;-0.32;100.00;99891.63;4951446;29;20177;-73
2023/03/08 02:06:51;;;;;;;39.72;18.05;;;;;;;-0.30;100.00;99888.88;4949764;29;20804;-73
2023/03/08 02:09:21;;;;;;;38.85;17.45;;;;;;;-0.30;100.00;99886.19;4950215;29;20027;-73
2023/03/08 02:11:47;;;;;;;44.00;18.05;;;;;;;-0.30;100.00;99881.72;4950679;28;20443;-73
2023/03/08 02:14:12;;;;;;;40.35;19.33;;;;;;;-0.27;100.00;99867.38;4960900;28;20050;-73
2023/03/08 02:16:42;;;;;;;48.33;20.05;;;;;;;-0.25;100.00;99868.16;4950876;28;20031;-73
2023/03/08 02:19:15;;;;;;;53.30;19.20;;;;;;;-0.24;100.00;99855.66;4951406;29;20506;-73
2023/03/08 02:21:41;;;;;;;44.10;18.60;;;;;;;-0.23;100.00;99849.38;4950187;29;20399;-73
2023/03/08 02:24:18;;;;;;;48.10;19.35;;;;;;;-0.20;100.00;99850.09;4951349;28;20035;-73
2023/03/08 02:26:45;;;;;;;49.88;19.40;;;;;;;-0.21;100.00;99843.03;4951286;29;20047;-73
2023/03/08 02:29:10;;;;;;;46.17;19.98;;;;;;;-0.21;100.00;99834.16;4950274;28;20047;-73
2023/03/08 02:31:36;;;;;;;47.90;20.17;;;;;;;-0.17;100.00;99841.09;4952293;28;20045;-73
2023/03/08 02:34:03;;;;;;;43.55;19.10;;;;;;;-0.17;100.00;99835.75;4951381;29;20039;-72
2023/03/08 02:36:29;;;;;;;54.13;20.95;;;;;;;-0.15;100.00;99834.72;4950665;28;20086;-73
2023/03/08 02:38:54;;;;;;;54.60;21.70;;;;;;;-0.09;100.00;99841.63;4950876;29;20420;-73
2023/03/08 02:41:19;;;;;;;49.70;19.60;;;;;;;-0.09;100.00;99830.94;4952419;29;20122;-73
2023/03/08 02:43:45;;;;;;;53.63;21.00;;;;;;;-0.07;100.00;99831.72;4949506;29;20039;-73
2023/03/08 02:46:14;;;;;;;49.85;20.33;;;;;;;-0.07;100.00;99826.38;4951815;28;20147;-73
2023/03/08 02:48:39;;;;;;;60.22;22.77;;;;;;;-0.05;100.00;99828.06;4950931;29;20123;-73
2023/03/08 02:51:05;;;;;;;51.38;20.77;;;;;;;-0.03;100.00;99828.84;4950377;28;20114;-73
2023/03/08 02:53:30;;;;;;;53.50;21.33;;;;;;;-0.04;100.00;99823.56;4935151;29;20146;-74
2023/03/08 02:55:55;;;;;;;51.25;21.85;;;;;;;-0.02;100.00;99832.38;4949268;29;20027;-73
2023/03/08 02:58:21;;;;;;;50.65;21.77;;;;;;;0.00;100.00;99830.53;4949895;28;20127;-74
2023/03/08 03:00:47;;;;;;;56.03;20.77;;;;;;;0.02;100.00;99825.09;4950427;28;20039;-74
2023/03/08 03:03:13;;;;;;;52.08;19.92;;;;;;;-0.01;100.00;99824.28;4950275;28;20050;-74
2023/03/08 03:05:43;;;;;;;56.92;20.67;;;;;;;0.03;100.00;99825.00;4951005;28;20086;-74
2023/03/08 03:08:12;;;;;;;52.33;20.48;;;;;;;0.05;100.00;99822.25;4954951;28;20117;-73
2023/03/08 03:10:38;;;;;;;50.22;19.70;;;;;;;0.02;100.00;99809.06;4947893;28;20125;-74
2023/03/08 03:13:05;;;;;;;54.28;20.23;;;;;;;0.03;100.00;99789.38;4954174;28;20061;-73
2023/03/08 03:15:32;;;;;;;49.67;20.17;;;;;;;0.03;100.00;99790.25;4949805;28;20027;-74
2023/03/08 03:17:58;;;;;;;49.58;19.25;;;;;;;0.05;100.00;99806.22;4948550;28;20390;-74
2023/03/08 03:20:24;;;;;;;47.35;18.80;;;;;;;0.03;100.00;99797.41;4947103;28;20022;-74
2023/03/08 03:22:49;;;;;;;50.58;21.08;;;;;;;0.04;100.00;99797.34;4947575;28;20065;-74
2023/03/08 03:25:17;;;;;;;49.63;20.13;;;;;;;0.06;100.00;99791.94;4977126;28;20023;-74
2023/03/08 03:27:44;;;;;;;43.85;18.85;;;;;;;0.05;100.00;99780.38;4966005;28;20023;-74
2023/03/08 03:30:11;;;;;;;44.90;19.13;;;;;;;0.03;100.00;99774.22;4948046;28;20031;-75
2023/03/08 03:32:37;;;;;;;43.63;19.52;;;;;;;0.03;100.00;99770.69;4948859;28;20034;-74
2023/03/08 03:35:04;;;;;;;47.25;19.58;;;;;;;0.05;100.00;99764.34;4957995;28;20054;-74
2023/03/08 03:37:29;;;;;;;49.10;18.80;;;;;;;0.07;100.00;99758.91;4952970;28;20069;-73
2023/03/08 03:39:55;;;;;;;50.15;19.98;;;;;;;0.08;100.00;99741.91;4949255;29;20130;-74
2023/03/08 03:42:21;;;;;;;43.90;18.48;;;;;;;0.06;100.00;99742.00;4949728;29;20209;-74
2023/03/08 03:44:57;;;;;;;42.85;17.90;;;;;;;0.04;100.00;99743.84;4942187;28;20031;-74
2023/03/08 03:47:22;;;;;;;43.90;18.60;;;;;;;0.03;100.00;99742.13;4949585;28;20062;-74
2023/03/08 03:49:53;;;;;;;41.63;18.52;;;;;;;0.02;100.00;99735.06;4949300;28;20035;-73
2023/03/08 03:52:20;;;;;;;39.60;18.67;;;;;;;0.01;100.00;99740.50;4949536;29;20038;-73
2023/03/08 03:54:53;;;;;;;42.05;18.88;;;;;;;0.01;100.00;99744.03;4949630;29;20027;-73
2023/03/08 03:57:19;;;;;;;43.45;18.65;;;;;;;0.02;100.00;99745.75;4949310;28;20491;-73
2023/03/08 03:59:45;;;;;;;44.33;18.45;;;;;;;-0.01;100.00;99727.16;4948926;28;20046;-73
2023/03/08 04:02:10;;;;;;;39.90;17.90;;;;;;;-0.02;100.00;99726.31;4948534;29;20456;-73
2023/03/08 04:04:50;;;;;;;44.85;18.75;;;;;;;-0.01;100.00;99735.19;4949168;28;20530;-73
2023/03/08 04:07:19;;;;;;;39.22;18.25;;;;;;;-0.05;100.00;99717.56;4968525;28;20043;-73
2023/03/08 04:09:53;;;;;;;42.83;19.13;;;;;;;-0.06;100.00;99715.84;4967752;28;20067;-73
2023/03/08 04:12:19;;;;;;;43.55;18.17;;;;;;;-0.06;100.00;99718.50;4954600;28;20035;-73
2023/03/08 04:14:44;;;;;;;44.95;18.77;;;;;;;-0.10;100.00;99715.09;4948547;28;20034;-73
2023/03/08 04:17:11;;;;;;;42.42;18.35;;;;;;;-0.08;100.00;99710.56;4948185;29;20546;-73
2023/03/08 04:19:42;;;;;;;46.55;20.17;;;;;;;-0.09;100.00;99703.50;4948922;28;20554;-73
2023/03/08 04:22:09;;;;;;;46.67;18.98;;;;;;;-0.09;100.00;99697.28;4947935;29;20031;-73
2023/03/08 04:24:42;;;;;;;51.50;20.00;;;;;;;-0.09;100.00;99694.63;4933182;29;20094;-73
2023/03/08 04:27:13;;;;;;;45.28;19.98;;;;;;;-0.11;100.00;99689.31;4949050;29;20027;-73
2023/03/08 04:29:38;;;;;;;50.05;21.00;;;;;;;-0.10;100.00;99688.38;4948214;28;20101;-73
2023/03/08 04:32:04;;;;;;;45.97;19.35;;;;;;;-0.08;100.00;99682.97;4949145;28;20023;-73
2023/03/08 04:34:41;;;;;;;48.53;19.13;;;;;;;-0.09;100.00;99678.56;4949030;29;20110;-73
2023/03/08 04:37:11;;;;;;;43.13;18.48;;;;;;;-0.07;100.00;99676.69;4948772;28;20031;-73
2023/03/08 04:39:38;;;;;;;42.67;17.63;;;;;;;-0.08;100.00;99670.47;4948830;29;20483;-73
2023/03/08 04:42:04;;;;;;;41.58;18.05;;;;;;;-0.07;100.00;99658.84;4948690;28;20035;-73
2023/03/08 04:44:31;;;;;;;44.47;18.00;;;;;;;-0.05;100.00;99664.09;4933513;29;20558;-74
2023/03/08 04:46:57;;;;;;;43.10;18.67;;;;;;;-0.06;100.00;99657.88;4948563;28;20023;-73
2023/03/08 04:49:29;;;;;;;40.83;18.15;;;;;;;-0.07;100.00;99650.81;4949207;29;20039;-73
2023/03/08 04:51:59;;;;;;;39.90;17.95;;;;;;;-0.05;100.00;99651.63;4935768;28;20471;-73
2023/03/08 04:54:26;;;;;;;41.05;17.83;;;;;;;-0.04;100.00;99653.34;4933256;29;20039;-73
2023/03/08 04:56:57;;;;;;;37.08;16.13;;;;;;;-0.04;100.00;99650.69;4948744;28;20054;-73
2023/03/08 04:59:24;;;;;;;38.28;16.05;;;;;;;-0.05;100.00;99638.25;4949567;28;20110;-73
2023/03/08 05:01:51;;;;;;;37.90;16.23;;;;;;;-0.04;100.00;99636.44;4947664;29;20246;-73
2023/03/08 05:04:17;;;;;;;37.15;17.13;;;;;;;-0.05;100.00;99622.22;4948708;29;20045;-73
2023/03/08 05:06:43;;;;;;;31.85;16.00;;;;;;;-0.06;100.00;99615.13;4948550;28;20078;-73
2023/03/08 05:09:12;;;;;;;31.77;15.07;;;;;;;-0.05;100.00;99613.31;4948394;29;20118;-73
2023/03/08 05:11:40;;;;;;;33.45;15.70;;;;;;;-0.03;100.00;99614.13;4947503;29;20032;-73
2023/03/08 05:14:06;;;;;;;33.10;14.63;;;;;;;-0.07;100.00;99609.84;4941186;28;20396;-73
2023/03/08 05:16:32;;;;;;;31.73;14.88;;;;;;;-0.07;100.00;99605.38;4948721;28;20032;-73
2023/03/08 05:18:57;;;;;;;32.92;13.85;;;;;;;-0.06;100.00;99603.56;4955891;28;20042;-73
2023/03/08 05:21:28;;;;;;;33.90;14.52;;;;;;;-0.05;100.00;99602.59;4950965;28;20038;-73
2023/03/08 05:23:59;;;;;;;30.17;13.50;;;;;;;-0.04;100.00;99599.88;4951994;28;20035;-74
2023/03/08 05:26:25;;;;;;;29.15;12.85;;;;;;;-0.03;100.00;99592.72;4952337;29;20034;-73
2023/03/08 05:28:51;;;;;;;32.65;13.27;;;;;;;-0.04;100.00;99583.84;4952073;29;20373;-73
2023/03/08 05:31:20;;;;;;;32.25;14.77;;;;;;;-0.02;100.00;99584.63;4952989;28;20556;-74
2023/03/08 05:33:49;;;;;;;30.05;13.48;;;;;;;-0.02;100.00;99568.59;4952202;29;20039;-73
2023/03/08 05:36:18;;;;;;;31.50;14.02;;;;;;;-0.04;100.00;99570.47;4952085;28;20491;-73
2023/03/08 05:38:45;;;;;;;33.00;12.93;;;;;;;-0.03;100.00;99560.66;4951726;29;20070;-73
2023/03/08 05:41:13;;;;;;;29.45;14.27;;;;;;;-0.04;100.00;99558.94;4935957;28;20070;-73
2023/03/08 05:43:40;;;;;;;31.50;13.43;;;;;;;-0.04;100.00;99549.09;4951808;29;20403;-73
2023/03/08 05:46:11;;;;;;;27.92;13.82;;;;;;;-0.05;100.00;99547.38;4951373;28;20119;-74
2023/03/08 05:48:37;;;;;;;32.97;13.30;;;;;;;-0.05;100.00;99544.69;4951988;29;20027;-73
2023/03/08 05:51:07;;;;;;;26.65;12.50;;;;;;;-0.04;100.00;99537.53;4953047;28;20030;-74
2023/03/08 05:53:34;;;;;;;25.48;11.13;;;;;;;-0.05;100.00;99534.00;4951807;29;20035;-74
2023/03/08 05:56:09;;;;;;;27.83;11.35;;;;;;;-0.05;100.00;99533.09;4951955;29;20473;-73
2023/03/08 05:58:36;;;;;;;22.40;9.55;;;;;;;-0.10;100.00;99524.47;4950088;28;20051;-74
2023/03/08 06:01:17;;;;;;;22.58;9.85;;;;;;;-0.09;100.00;99516.38;4947012;28;20031;-73
2023/03/08 06:03:44;;;;;;;19.48;9.50;;;;;;;-0.10;100.00;99511.09;4953082;29;20487;-74
2023/03/08 06:06:10;;;;;;;27.42;10.20;;;;;;;-0.15;100.00;99508.66;4951555;28;20086;-74
2023/03/08 06:08:36;;;;;;;18.10;7.97;;;;;;;-0.21;100.00;99508.09;4951543;29;20491;-74
2023/03/08 06:11:02;;;;;;;23.08;8.85;;;;;;;-0.22;100.00;99503.72;4951311;28;20101;-74
2023/03/08 06:13:28;;;;;;;17.65;8.23;;;;;;;-0.25;100.00;99504.72;4951433;28;20027;-75
2023/03/08 06:15:55;;;;;;;19.08;8.50;;;;;;;-0.26;100.00;99513.69;4950941;28;20511;-74
2023/03/08 06:18:21;;;;;;;16.38;7.05;;;;;;;-0.29;100.00;99508.47;4951219;28;20027;-76
2023/03/08 06:21:01;;;;;;;17.40;7.35;;;;;;;-0.31;100.00;99508.56;4952089;28;20483;-75
2023/03/08 06:23:29;;;;;;;16.08;7.30;;;;;;;-0.37;100.00;99500.88;4951461;28;20070;-75
2023/03/08 06:25:55;;;;;;;16.58;6.85;;;;;;;-0.38;100.00;99501.78;4951275;29;20404;-74
2023/03/08 06:28:21;;;;;;;17.27;7.15;;;;;;;-0.37;100.00;99511.53;4950760;28;20030;-75
2023/03/08 06:30:50;;;;;;;13.77;7.32;;;;;;;-0.40;100.00;99501.00;4945160;29;20394;-74
2023/03/08 06:33:18;;;;;;;19.67;7.82;;;;;;;-0.39;100.00;99505.41;4935641;29;20042;-74
2023/03/08 06:35:53;;;;;;;16.52;6.72;;;;;;;-0.40;100.00;99500.13;4951080;28;20166;-74
2023/03/08 06:38:20;;;;;;;14.90;7.35;;;;;;;-0.43;100.00;99497.59;4950720;28;20521;-75
2023/03/08 06:40:45;;;;;;;13.55;6.15;;;;;;;-0.45;100.00;99491.50;4951065;29;20071;-74
2023/03/08 06:43:11;;;;;;;15.43;6.97;;;;;;;-0.44;100.00;99493.22;4949650;29;20125;-74
2023/03/08 06:45:37;;;;;;;14.07;6.88;;;;;;;-0.46;100.00;99487.09;4952093;28;20038;-74
2023/03/08 06:48:03;;;;;;;16.15;6.82;;;;;;;-0.49;100.00;99492.56;4950737;28;20495;-73
2023/03/08 06:50:28;;;;;;;16.40;6.60;;;;;;;-0.48;100.00;99492.50;4950883;28;20032;-74
2023/03/08 06:52:53;;;;;;;14.82;7.00;;;;;;;-0.47;100.00;99501.38;4934729;29;20047;-73
2023/03/08 06:55:28;;;;;;;15.50;6.78;;;;;;;-0.48;100.00;99502.31;4935289;29;20568;-74
2023/03/08 06:57:54;;;;;;;10.55;5.70;;;;;;;-0.49;100.00;99508.59;4951235;28;20122;-74
2023/03/08 07:00:21;;;;;;;16.63;7.30;;;;;;;-0.50;100.00;99498.88;4951756;28;20482;-73
2023/03/08 07:02:47;;;;;;;12.63;6.13;;;;;;;-0.51;100.00;99495.34;4951760;28;20046;-74
2023/03/08 07:05:14;;;;;;;13.55;5.88;;;;;;;-0.56;100.00;99492.88;4950298;28;20035;-73
2023/03/08 07:07:43;;;;;;;13.30;5.93;;;;;;;-0.55;100.00;99496.41;4951955;29;20031;-73
2023/03/08 07:10:11;;;;;;;14.50;6.30;;;;;;;-0.54;100.00;99496.34;4951990;29;20127;-73
2023/03/08 07:12:39;;;;;;;13.48;5.25;;;;;;;-0.55;100.00;99491.06;4960240;28;20054;-73
2023/03/08 07:15:07;;;;;;;10.63;5.15;;;;;;;-0.56;100.00;99483.97;4967963;28;20073;-74
2023/03/08 07:17:34;;;;;;;10.57;4.40;;;;;;;-0.56;100.00;99475.97;4968752;28;20035;-73
2023/03/08 07:20:00;;;;;;;10.68;5.25;;;;;;;-0.56;100.00;99475.97;4970207;28;20031;-74
2023/03/08 07:22:25;;;;;;;10.68;5.20;;;;;;;-0.57;100.00;99479.59;4968974;28;20034;-74
2023/03/08 07:24:51;;;;;;;10.63;5.40;;;;;;;-0.57;100.00;99479.59;4969661;28;20111;-74
2023/03/08 07:27:16;;;;;;;7.82;4.65;;;;;;;-0.58;100.00;99469.84;4952889;28;20031;-74
2023/03/08 07:29:41;;;;;;;7.68;3.63;;;;;;;-0.58;100.00;99467.19;4949815;29;20428;-73
2023/03/08 07:32:07;;;;;;;9.73;3.65;;;;;;;-0.58;100.00;99462.69;4949858;29;20039;-73
2023/03/08 07:34:32;;;;;;;9.27;4.28;;;;;;;-0.58;100.00;99459.16;4951867;29;20126;-73
2023/03/08 07:36:58;;;;;;;10.65;3.90;;;;;;;-0.59;100.00;99460.97;4951775;28;20395;-73
2023/03/08 07:39:23;;;;;;;9.23;4.60;;;;;;;-0.57;100.00;99447.53;4950306;29;20126;-74
2023/03/08 07:41:49;;;;;;;9.10;4.13;;;;;;;-0.57;100.00;99450.22;4950601;29;20118;-73
2023/03/08 07:44:14;;;;;;;9.00;4.15;;;;;;;-0.59;100.00;99444.94;4950454;28;20027;-73
2023/03/08 07:46:40;;;;;;;7.65;3.50;;;;;;;-0.56;100.00;99455.50;4949466;28;20023;-73
2023/03/08 07:49:09;;;;;;;7.75;4.03;;;;;;;-0.57;100.00;99448.41;4950206;29;20129;-75
2023/03/08 07:51:35;;;;;;;8.25;4.38;;;;;;;-0.60;100.00;99442.38;4951039;28;20046;-74
2023/03/08 07:54:00;;;;;;;10.35;4.53;;;;;;;-0.61;100.00;99441.47;4950333;29;20038;-75
2023/03/08 07:56:25;;;;;;;9.93;4.60;;;;;;;-0.57;100.00;99442.19;4951212;28;20039;-75
2023/03/08 07:58:51;;;;;;;13.85;4.78;;;;;;;-0.56;100.00;99446.59;4960735;28;20058;-75
2023/03/08 08:01:16;;;;;;;9.35;4.82;;;;;;;-0.59;100.00;99434.28;4952903;28;20027;-75
2023/03/08 08:03:42;;;;;;;14.45;5.68;;;;;;;-0.56;100.00;99430.56;4950099;29;20035;-74
2023/03/08 08:06:08;;;;;;;13.80;5.43;;;;;;;-0.57;100.00;99427.03;4950868;28;20376;-75
2023/03/08 08:08:33;;;;;;;12.38;5.47;;;;;;;-0.55;100.00;99427.84;4949811;29;20043;-76
2023/03/08 08:10:59;;;;;;;10.77;5.70;;;;;;;-0.55;100.00;99433.19;4950337;29;20046;-75
2023/03/08 08:13:24;;;;;;;12.55;5.65;;;;;;;-0.57;100.00;99418.16;4950629;28;20077;-75
2023/03/08 08:16:00;;;;;;;12.40;6.20;;;;;;;-0.55;100.00;99419.81;4951009;28;20439;-76
2023/03/08 08:18:26;;;;;;;12.30;6.35;;;;;;;-0.52;100.00;99421.47;4949665;28;20038;-76
2023/03/08 08:20:59;;;;;;;14.10;6.13;;;;;;;-0.50;100.00;99416.94;4950879;28;20209;-75
2023/03/08 08:23:24;;;;;;;13.38;6.25;;;;;;;-0.50;100.00;99406.25;4949572;29;20078;-76
2023/03/08 08:25:49;;;;;;;11.85;6.78;;;;;;;-0.50;100.00;99406.25;4968862;28;20134;-76
2023/03/08 08:28:15;;;;;;;12.57;6.45;;;;;;;-0.48;100.00;99400.81;4968427;28;20042;-76
2023/03/08 08:30:40;;;;;;;13.73;5.97;;;;;;;-0.49;100.00;99399.09;4966199;28;20031;-78
2023/03/08 08:33:05;;;;;;;16.75;6.65;;;;;;;-0.48;100.00;99395.47;4949014;28;20156;-77
2023/03/08 08:35:31;;;;;;;12.63;6.15;;;;;;;-0.51;100.00;99391.16;4964975;28;20039;-77
2023/03/08 08:37:56;;;;;;;13.93;6.22;;;;;;;-0.61;100.00;99372.03;4951985;28;20398;-77
2023/03/08 08:40:21;;;;;;;14.88;6.72;;;;;;;-0.60;100.00;99373.78;4949006;28;20039;-77
2023/03/08 08:42:47;;;;;;;13.90;6.93;;;;;;;-0.60;100.00;99371.13;4949576;29;20047;-78
2023/03/08 08:45:12;;;;;;;12.10;5.82;;;;;;;-0.61;100.00;99374.72;4948466;29;20046;-76
2023/03/08 08:47:37;;;;;;;13.13;7.13;;;;;;;-0.59;100.00;99375.50;4926378;29;20046;-77
2023/03/08 08:50:03;;;;;;;11.65;6.00;;;;;;;-0.57;100.00;99380.75;4949180;28;20028;-78
2023/03/08 08:52:28;;;;;;;12.73;5.85;;;;;;;-0.56;100.00;99382.50;4951256;29;20042;-77
2023/03/08 08:54:55;;;;;;;12.50;5.75;;;;;;;-0.54;100.00;99391.31;4933651;29;20055;-77
2023/03/08 08:57:20;;;;;;;11.63;6.15;;;;;;;-0.52;100.00;99389.41;4952021;28;20043;-78
2023/03/08 08:59:46;;;;;;;11.40;6.25;;;;;;;-0.51;100.00;99399.19;4960829;28;20403;-78
2023/03/08 09:02:12;;;;;;;15.50;6.82;;;;;;;-0.46;100.00;99412.31;4954650;28;20436;-78
2023/03/08 09:04:37;;;;;;;11.70;5.30;;;;;;;-0.47;100.00;99406.06;4954764;29;20058;-78
2023/03/08 09:07:03;;;;;;;11.80;5.50;;;;;;;-0.53;100.00;99406.38;4937098;29;20039;-79
2023/03/08 09:09:28;;;;;;;11.88;5.72;;;;;;;-0.53;100.00;99411.72;4953632;29;20034;-78
2023/03/08 09:11:53;;;;;;;9.48;5.25;;;;;;;-0.56;100.00;99403.84;4954341;28;20054;-79
2023/03/08 09:14:19;;;;;;;11.68;5.60;;;;;;;-0.56;100.00;99385.16;4952663;28;20098;-79
2023/03/08 09:16:44;;;;;;;10.07;5.35;;;;;;;-0.60;100.00;99373.78;4938512;29;20051;-80
2023/03/08 09:19:10;;;;;;;11.00;4.95;;;;;;;-0.62;100.00;99364.13;4953158;29;20087;-79
2023/03/08 09:21:35;;;;;;;11.80;6.25;;;;;;;-0.62;100.00;99348.09;4954487;28;20483;-79
2023/03/08 09:24:04;;;;;;;8.95;4.57;;;;;;;-0.59;100.00;99343.47;4954906;29;20027;-78
2023/03/08 09:26:31;;;;;;;10.65;5.32;;;;;;;-0.59;100.00;99340.78;4952258;29;20031;-80
2023/03/08 09:29:03;;;;;;;9.32;4.53;;;;;;;-0.58;100.00;99336.31;4952881;29;20376;-79
2023/03/08 09:31:30;;;;;;;8.83;4.37;;;;;;;-0.54;100.00;99335.22;4960575;28;20038;-79
2023/03/08 09:33:56;;;;;;;9.25;4.68;;;;;;;-0.49;100.00;99335.84;4952987;28;20794;-79
2023/03/08 09:36:21;;;;;;;6.97;3.80;;;;;;;-0.45;100.00;99334.75;4937403;29;20045;-79
2023/03/08 09:38:48;;;;;;;7.32;3.83;;;;;;;-0.38;100.00;99329.94;4936819;29;20090;-78
2023/03/08 09:41:32;;;;;;;9.18;4.40;;;;;;;-0.37;100.00;99324.53;4936747;29;21142;-78
2023/03/08 09:44:44;;;;;;;8.80;4.60;;;;;;;-0.33;100.00;99320.75;4957183;28;20046;-78
2023/03/08 09:47:38;;;;;;;7.57;4.18;;;;;;;-0.34;100.00;99315.47;4927757;28;20436;-78
2023/03/08 09:50:16;;;;;;;12.48;6.22;;;;;;;-0.27;100.00;99312.41;4958001;28;20050;-78
2023/03/08 09:52:49;;;;;;;13.48;7.05;;;;;;;-0.27;100.00;99319.56;4956927;28;20027;-77
2023/03/08 09:55:32;;;;;;;17.38;7.10;;;;;;;-0.24;100.00;99307.84;4965772;28;20502;-77
2023/03/08 09:58:20;;;;;;;14.00;8.38;;;;;;;-0.13;100.00;99314.34;4957945;28;20031;-77
2023/03/08 10:00:46;;;;;;;17.85;9.63;;;;;;;-0.08;100.00;99298.06;4954429;28;20039;-76
2023/03/08 10:03:46;;;;;;;16.52;8.23;;;;;;;0.05;100.00;99288.44;4952199;28;20045;-76
2023/03/08 10:06:14;;;;;;;20.67;10.82;;;;;;;0.08;100.00;99282.91;4961676;28;20031;-76
2023/03/08 10:08:58;;;;;;;22.42;10.32;;;;;;;0.13;100.00;99293.34;4946585;28;20435;-75
2023/03/08 10:11:32;;;;;;;24.65;12.63;;;;;;;0.20;100.00;99303.66;4954189;28;20039;-75
2023/03/08 10:14:05;;;;;;;27.88;12.52;;;;;;;0.22;100.00;99304.41;4958934;28;20374;-76
2023/03/08 10:16:35;;;;;;;26.52;12.23;;;;;;;0.27;100.00;99304.16;4956019;28;20031;-76
2023/03/08 10:19:06;;;;;;;30.02;14.85;;;;;;;0.32;100.00;99312.78;4939005;28;20043;-75
2023/03/08 10:21:35;;;;;;;27.52;12.90;;;;;;;0.36;100.00;99305.47;4952751;28;20039;-74
2023/03/08 10:24:25;;;;;;;27.77;13.75;;;;;;;0.35;100.00;99298.41;4959338;28;20037;-75
2023/03/08 10:27:01;;;;;;;27.25;11.30;;;;;;;0.32;100.00;99299.41;4951719;28;20035;-75
2023/03/08 10:29:27;;;;;;;31.92;12.55;;;;;;;0.25;100.00;99290.88;4951669;28;20044;-75
2023/03/08 10:31:52;;;;;;;27.30;12.77;;;;;;;0.25;100.00;99290.88;4966856;28;20105;-76
2023/03/08 10:34:20;;;;;;;24.98;11.73;;;;;;;0.28;100.00;99291.63;4952121;28;20095;-76
2023/03/08 10:37:07;;;;;;;29.65;13.25;;;;;;;0.41;100.00;99300.72;4939876;28;20045;-75
2023/03/08 10:39:35;;;;;;;28.13;13.77;;;;;;;0.50;100.00;99295.72;4962238;28;20495;-75
2023/03/08 10:42:12;;;;;;;23.05;12.18;;;;;;;0.47;100.00;99273.66;4954156;28;20499;-75
2023/03/08 10:44:43;;;;;;;26.77;12.63;;;;;;;0.44;100.00;99255.94;4958726;28;20067;-75
2023/03/08 10:47:20;;;;;;;28.40;14.60;;;;;;;0.44;100.00;99258.63;4945533;29;20035;-75
2023/03/08 10:49:46;;;;;;;30.67;14.75;;;;;;;0.48;100.00;99254.81;4958172;28;20039;-77
2023/03/08 10:52:27;;;;;;;27.35;13.98;;;;;;;0.52;100.00;99254.66;4953842;28;20387;-76
2023/03/08 10:55:09;;;;;;;28.70;14.55;;;;;;;0.52;100.00;99263.53;4954608;28;20398;-76
2023/03/08 10:57:36;;;;;;;27.17;14.13;;;;;;;0.52;100.00;99263.53;4949317;28;20391;-76
2023/03/08 11:00:16;;;;;;;26.38;13.80;;;;;;;0.59;100.00;99264.91;4957807;28;20035;-76
2023/03/08 11:02:42;;;;;;;29.02;13.98;;;;;;;0.65;100.00;99272.59;4950786;28;20798;-78
2023/03/08 11:05:18;;;;;;;30.05;14.75;;;;;;;0.65;100.00;99280.63;4961646;28;20031;-78
2023/03/08 11:07:56;;;;;;;28.60;13.40;;;;;;;0.65;100.00;99285.97;4966275;28;20037;-77
2023/03/08 11:10:23;;;;;;;24.30;13.80;;;;;;;0.65;100.00;99277.06;4959684;28;20613;-77
2023/03/08 11:13:00;;;;;;;31.17;13.65;;;;;;;0.55;100.00;99279.41;4959215;28;20414;-77
2023/03/08 11:15:29;;;;;;;26.02;12.93;;;;;;;0.55;100.00;99273.19;4957820;28;20035;-76
2023/03/08 11:18:05;;;;;;;24.42;12.68;;;;;;;0.49;100.00;99275.25;4951537;28;20105;-75
2023/03/08 11:20:40;;;;;;;21.00;10.93;;;;;;;0.46;100.00;99272.75;4959973;28;20613;-75